sensor_id;sensor_type;location;lat;lon;timestamp;temperature;humidity
17795;DHT22;9021;50.882;4.326;2023-09-19T00:01:06;17.30;99.90
17795;DHT22;9021;50.882;4.326;2023-09-19T00:03:34;17.30;99.90
17795;DHT22;9021;50.882;4.326;2023-09-19T00:06:01;17.30;99.90
17795;DHT22;9021;50.882;4.326;2023-09-19T00:08:26;17.30;99.90
17795;DHT22;9021;50.882;4.326;2023-09-19T00:10:53;17.20;99.90
17795;DHT22;9021;50.882;4.326;2023-09-19T00:13:20;17.20;99.90
17795;DHT22;9021;50.882;4.326;2023-09-19T00:15:46;17.20;99.90
17795;DHT22;9021;50.882;4.326;2023-09-19T00:18:16;17.20;99.90
17795;DHT22;9021;50.882;4.326;2023-09-19T00:20:44;17.30;99.90
17795;DHT22;9021;50.882;4.326;2023-09-19T00:23:13;17.10;99.90
17795;DHT22;9021;50.882;4.326;2023-09-19T00:25:39;17.10;99.90
17795;DHT22;9021;50.882;4.326;2023-09-19T00:28:05;17.10;99.90
17795;DHT22;9021;50.882;4.326;2023-09-19T00:30:33;17.10;99.90
17795;DHT22;9021;50.882;4.326;2023-09-19T00:32:58;17.10;99.90
17795;DHT22;9021;50.882;4.326;2023-09-19T00:35:24;17.00;99.90
17795;DHT22;9021;50.882;4.326;2023-09-19T00:37:50;17.10;99.90
17795;DHT22;9021;50.882;4.326;2023-09-19T00:40:15;17.10;99.90
17795;DHT22;9021;50.882;4.326;2023-09-19T00:42:45;17.20;99.90
17795;DHT22;9021;50.882;4.326;2023-09-19T00:45:11;17.10;99.90
17795;DHT22;9021;50.882;4.326;2023-09-19T00:50:06;17.10;99.90
17795;DHT22;9021;50.882;4.326;2023-09-19T00:52:39;17.00;99.90
17795;DHT22;9021;50.882;4.326;2023-09-19T00:55:08;17.00;99.90
17795;DHT22;9021;50.882;4.326;2023-09-19T00:57:34;17.10;99.90
17795;DHT22;9021;50.882;4.326;2023-09-19T01:00:00;17.00;99.90
17795;DHT22;9021;50.882;4.326;2023-09-19T01:02:30;16.90;99.90
17795;DHT22;9021;50.882;4.326;2023-09-19T01:04:56;15.60;99.90
17795;DHT22;9021;50.882;4.326;2023-09-19T01:07:22;16.80;99.90
17795;DHT22;9021;50.882;4.326;2023-09-19T01:09:48;16.80;99.90
17795;DHT22;9021;50.882;4.326;2023-09-19T01:12:16;16.70;99.90
17795;DHT22;9021;50.882;4.326;2023-09-19T01:15:04;16.70;99.90
17795;DHT22;9021;50.882;4.326;2023-09-19T01:17:38;16.70;99.90
17795;DHT22;9021;50.882;4.326;2023-09-19T01:20:15;16.70;99.90
17795;DHT22;9021;50.882;4.326;2023-09-19T01:30:14;16.80;99.90
17795;DHT22;9021;50.882;4.326;2023-09-19T01:32:42;16.70;99.90
17795;DHT22;9021;50.882;4.326;2023-09-19T01:35:08;16.70;99.90
17795;DHT22;9021;50.882;4.326;2023-09-19T01:37:38;16.70;99.90
17795;DHT22;9021;50.882;4.326;2023-09-19T01:40:04;16.70;99.90
17795;DHT22;9021;50.882;4.326;2023-09-19T01:47:54;16.70;99.90
17795;DHT22;9021;50.882;4.326;2023-09-19T01:52:51;16.60;99.90
17795;DHT22;9021;50.882;4.326;2023-09-19T01:55:20;16.60;99.90
17795;DHT22;9021;50.882;4.326;2023-09-19T01:57:58;16.60;99.90
17795;DHT22;9021;50.882;4.326;2023-09-19T02:00:26;16.60;99.90
17795;DHT22;9021;50.882;4.326;2023-09-19T02:02:52;16.60;99.90
17795;DHT22;9021;50.882;4.326;2023-09-19T02:05:24;16.60;99.90
17795;DHT22;9021;50.882;4.326;2023-09-19T02:07:50;16.70;99.90
17795;DHT22;9021;50.882;4.326;2023-09-19T02:10:15;16.80;99.90
17795;DHT22;9021;50.882;4.326;2023-09-19T02:12:42;16.70;99.90
17795;DHT22;9021;50.882;4.326;2023-09-19T02:15:07;16.70;99.90
17795;DHT22;9021;50.882;4.326;2023-09-19T02:17:33;16.70;99.90
17795;DHT22;9021;50.882;4.326;2023-09-19T02:19:59;16.80;99.90
17795;DHT22;9021;50.882;4.326;2023-09-19T02:22:26;16.80;99.90
17795;DHT22;9021;50.882;4.326;2023-09-19T02:24:52;16.80;99.90
17795;DHT22;9021;50.882;4.326;2023-09-19T02:27:19;16.90;99.90
17795;DHT22;9021;50.882;4.326;2023-09-19T02:29:44;16.90;99.90
17795;DHT22;9021;50.882;4.326;2023-09-19T02:32:10;16.90;99.90
17795;DHT22;9021;50.882;4.326;2023-09-19T02:34:36;16.80;99.90
17795;DHT22;9021;50.882;4.326;2023-09-19T02:37:05;16.80;99.90
17795;DHT22;9021;50.882;4.326;2023-09-19T02:39:31;16.80;99.90
17795;DHT22;9021;50.882;4.326;2023-09-19T02:41:56;16.80;99.90
17795;DHT22;9021;50.882;4.326;2023-09-19T02:44:22;16.90;99.90
17795;DHT22;9021;50.882;4.326;2023-09-19T02:46:49;16.90;99.90
17795;DHT22;9021;50.882;4.326;2023-09-19T02:49:14;17.00;99.90
17795;DHT22;9021;50.882;4.326;2023-09-19T02:51:40;17.00;99.90
17795;DHT22;9021;50.882;4.326;2023-09-19T02:54:06;17.00;99.90
17795;DHT22;9021;50.882;4.326;2023-09-19T02:56:31;16.80;99.90
17795;DHT22;9021;50.882;4.326;2023-09-19T02:58:57;16.60;99.90
17795;DHT22;9021;50.882;4.326;2023-09-19T03:01:23;16.60;99.90
17795;DHT22;9021;50.882;4.326;2023-09-19T03:03:49;16.60;99.90
17795;DHT22;9021;50.882;4.326;2023-09-19T03:06:15;16.50;99.90
17795;DHT22;9021;50.882;4.326;2023-09-19T03:08:41;16.50;99.90
17795;DHT22;9021;50.882;4.326;2023-09-19T03:11:09;15.90;99.90
17795;DHT22;9021;50.882;4.326;2023-09-19T03:13:36;16.40;99.90
17795;DHT22;9021;50.882;4.326;2023-09-19T03:16:06;16.50;99.90
17795;DHT22;9021;50.882;4.326;2023-09-19T03:18:32;16.40;99.90
17795;DHT22;9021;50.882;4.326;2023-09-19T03:20:59;16.50;99.90
17795;DHT22;9021;50.882;4.326;2023-09-19T03:23:27;16.40;99.90
17795;DHT22;9021;50.882;4.326;2023-09-19T03:25:56;16.30;99.90
17795;DHT22;9021;50.882;4.326;2023-09-19T03:28:22;16.20;99.90
17795;DHT22;9021;50.882;4.326;2023-09-19T03:33:42;16.20;99.90
17795;DHT22;9021;50.882;4.326;2023-09-19T03:36:08;16.20;99.90
17795;DHT22;9021;50.882;4.326;2023-09-19T03:38:33;16.20;99.90
17795;DHT22;9021;50.882;4.326;2023-09-19T03:40:59;16.10;99.90
17795;DHT22;9021;50.882;4.326;2023-09-19T03:43:25;16.20;99.90
17795;DHT22;9021;50.882;4.326;2023-09-19T03:45:51;16.20;99.90
17795;DHT22;9021;50.882;4.326;2023-09-19T03:48:16;16.20;99.90
17795;DHT22;9021;50.882;4.326;2023-09-19T03:50:42;16.20;99.90
17795;DHT22;9021;50.882;4.326;2023-09-19T03:53:09;16.20;99.90
17795;DHT22;9021;50.882;4.326;2023-09-19T03:55:35;16.10;99.90
17795;DHT22;9021;50.882;4.326;2023-09-19T03:58:04;16.20;99.90
17795;DHT22;9021;50.882;4.326;2023-09-19T04:00:30;16.20;99.90
17795;DHT22;9021;50.882;4.326;2023-09-19T04:02:55;16.10;99.90
17795;DHT22;9021;50.882;4.326;2023-09-19T04:05:22;16.10;99.90
17795;DHT22;9021;50.882;4.326;2023-09-19T04:07:47;16.10;99.90
17795;DHT22;9021;50.882;4.326;2023-09-19T04:10:13;16.10;99.90
17795;DHT22;9021;50.882;4.326;2023-09-19T04:12:40;16.20;99.90
17795;DHT22;9021;50.882;4.326;2023-09-19T04:15:05;16.20;99.90
17795;DHT22;9021;50.882;4.326;2023-09-19T04:17:31;16.20;99.90
17795;DHT22;9021;50.882;4.326;2023-09-19T04:19:59;16.20;99.90
17795;DHT22;9021;50.882;4.326;2023-09-19T04:22:25;16.10;99.90
17795;DHT22;9021;50.882;4.326;2023-09-19T04:24:50;16.00;99.90
17795;DHT22;9021;50.882;4.326;2023-09-19T04:27:16;16.00;99.90
17795;DHT22;9021;50.882;4.326;2023-09-19T04:29:42;15.90;99.90
17795;DHT22;9021;50.882;4.326;2023-09-19T04:32:08;16.00;99.90
17795;DHT22;9021;50.882;4.326;2023-09-19T04:34:35;16.00;99.90
17795;DHT22;9021;50.882;4.326;2023-09-19T04:37:00;16.00;99.90
17795;DHT22;9021;50.882;4.326;2023-09-19T04:39:27;15.90;99.90
17795;DHT22;9021;50.882;4.326;2023-09-19T04:41:53;15.90;99.90
17795;DHT22;9021;50.882;4.326;2023-09-19T04:44:20;15.80;99.90
17795;DHT22;9021;50.882;4.326;2023-09-19T04:46:46;15.80;99.90
17795;DHT22;9021;50.882;4.326;2023-09-19T04:49:11;15.80;99.90
17795;DHT22;9021;50.882;4.326;2023-09-19T04:51:38;15.90;99.90
17795;DHT22;9021;50.882;4.326;2023-09-19T04:54:03;15.80;99.90
17795;DHT22;9021;50.882;4.326;2023-09-19T04:56:29;15.90;99.90
17795;DHT22;9021;50.882;4.326;2023-09-19T04:58:55;15.90;99.90
17795;DHT22;9021;50.882;4.326;2023-09-19T05:01:21;15.90;99.90
17795;DHT22;9021;50.882;4.326;2023-09-19T05:03:47;15.80;99.90
17795;DHT22;9021;50.882;4.326;2023-09-19T05:06:18;15.70;99.90
17795;DHT22;9021;50.882;4.326;2023-09-19T05:08:43;15.80;99.90
17795;DHT22;9021;50.882;4.326;2023-09-19T05:11:09;15.70;99.90
17795;DHT22;9021;50.882;4.326;2023-09-19T05:13:34;15.70;99.90
17795;DHT22;9021;50.882;4.326;2023-09-19T05:16:00;15.70;99.90
17795;DHT22;9021;50.882;4.326;2023-09-19T05:18:27;15.80;99.90
17795;DHT22;9021;50.882;4.326;2023-09-19T05:20:53;15.80;99.90
17795;DHT22;9021;50.882;4.326;2023-09-19T05:23:20;15.90;99.90
17795;DHT22;9021;50.882;4.326;2023-09-19T05:25:46;15.80;99.90
17795;DHT22;9021;50.882;4.326;2023-09-19T05:28:12;15.80;99.90
17795;DHT22;9021;50.882;4.326;2023-09-19T05:30:40;15.80;99.90
17795;DHT22;9021;50.882;4.326;2023-09-19T05:33:06;15.70;99.90
17795;DHT22;9021;50.882;4.326;2023-09-19T05:35:32;15.70;99.90
17795;DHT22;9021;50.882;4.326;2023-09-19T05:37:58;15.70;99.90
17795;DHT22;9021;50.882;4.326;2023-09-19T05:40:24;15.70;99.90
17795;DHT22;9021;50.882;4.326;2023-09-19T05:42:50;15.70;99.90
17795;DHT22;9021;50.882;4.326;2023-09-19T05:45:18;15.70;99.90
17795;DHT22;9021;50.882;4.326;2023-09-19T05:47:50;15.80;99.90
17795;DHT22;9021;50.882;4.326;2023-09-19T05:50:16;15.80;99.90
17795;DHT22;9021;50.882;4.326;2023-09-19T05:52:42;15.80;99.90
17795;DHT22;9021;50.882;4.326;2023-09-19T05:55:08;15.80;99.90
17795;DHT22;9021;50.882;4.326;2023-09-19T05:57:34;15.80;99.90
17795;DHT22;9021;50.882;4.326;2023-09-19T05:59:59;15.80;99.90
17795;DHT22;9021;50.882;4.326;2023-09-19T06:02:25;15.90;99.90
17795;DHT22;9021;50.882;4.326;2023-09-19T06:04:54;16.00;99.90
17795;DHT22;9021;50.882;4.326;2023-09-19T06:07:21;16.00;99.90
17795;DHT22;9021;50.882;4.326;2023-09-19T06:09:47;15.90;99.90
17795;DHT22;9021;50.882;4.326;2023-09-19T06:12:12;15.90;99.90
17795;DHT22;9021;50.882;4.326;2023-09-19T06:14:42;15.90;99.90
17795;DHT22;9021;50.882;4.326;2023-09-19T06:17:08;15.90;99.90
17795;DHT22;9021;50.882;4.326;2023-09-19T06:19:34;15.90;99.90
17795;DHT22;9021;50.882;4.326;2023-09-19T06:21:59;15.90;99.90
17795;DHT22;9021;50.882;4.326;2023-09-19T06:24:25;15.90;99.90
17795;DHT22;9021;50.882;4.326;2023-09-19T06:26:51;16.00;99.90
17795;DHT22;9021;50.882;4.326;2023-09-19T06:29:17;16.20;99.90
17795;DHT22;9021;50.882;4.326;2023-09-19T06:31:43;16.20;99.90
17795;DHT22;9021;50.882;4.326;2023-09-19T06:34:10;16.20;99.90
17795;DHT22;9021;50.882;4.326;2023-09-19T06:36:35;16.10;99.90
17795;DHT22;9021;50.882;4.326;2023-09-19T06:39:01;16.20;99.90
17795;DHT22;9021;50.882;4.326;2023-09-19T06:41:29;16.30;99.90
17795;DHT22;9021;50.882;4.326;2023-09-19T06:43:55;16.30;99.90
17795;DHT22;9021;50.882;4.326;2023-09-19T06:46:20;16.30;99.90
17795;DHT22;9021;50.882;4.326;2023-09-19T06:48:46;16.30;99.90
17795;DHT22;9021;50.882;4.326;2023-09-19T06:51:13;16.30;99.90
17795;DHT22;9021;50.882;4.326;2023-09-19T06:53:40;16.40;99.90
17795;DHT22;9021;50.882;4.326;2023-09-19T06:56:06;16.50;99.90
17795;DHT22;9021;50.882;4.326;2023-09-19T06:58:31;16.60;99.90
17795;DHT22;9021;50.882;4.326;2023-09-19T07:00:57;16.70;99.90
17795;DHT22;9021;50.882;4.326;2023-09-19T07:03:23;16.80;99.90
17795;DHT22;9021;50.882;4.326;2023-09-19T07:05:51;16.80;99.90
17795;DHT22;9021;50.882;4.326;2023-09-19T07:08:17;16.90;99.90
17795;DHT22;9021;50.882;4.326;2023-09-19T07:10:45;17.00;99.90
17795;DHT22;9021;50.882;4.326;2023-09-19T07:13:13;17.00;99.90
17795;DHT22;9021;50.882;4.326;2023-09-19T07:15:42;17.20;99.90
17795;DHT22;9021;50.882;4.326;2023-09-19T07:18:12;17.60;99.90
17795;DHT22;9021;50.882;4.326;2023-09-19T07:20:40;18.10;99.90
17795;DHT22;9021;50.882;4.326;2023-09-19T07:23:13;18.60;99.90
17795;DHT22;9021;50.882;4.326;2023-09-19T07:25:43;19.00;99.90
17795;DHT22;9021;50.882;4.326;2023-09-19T07:28:09;19.40;99.90
17795;DHT22;9021;50.882;4.326;2023-09-19T07:30:37;19.80;99.90
17795;DHT22;9021;50.882;4.326;2023-09-19T07:33:04;20.20;99.90
17795;DHT22;9021;50.882;4.326;2023-09-19T07:35:30;20.40;99.90
17795;DHT22;9021;50.882;4.326;2023-09-19T07:37:56;20.50;99.90
17795;DHT22;9021;50.882;4.326;2023-09-19T07:40:27;20.40;99.90
17795;DHT22;9021;50.882;4.326;2023-09-19T07:42:54;21.10;99.90
17795;DHT22;9021;50.882;4.326;2023-09-19T07:45:20;20.10;99.90
17795;DHT22;9021;50.882;4.326;2023-09-19T07:50:12;19.90;99.90
17795;DHT22;9021;50.882;4.326;2023-09-19T07:52:38;19.70;99.90
17795;DHT22;9021;50.882;4.326;2023-09-19T07:55:05;19.30;99.90
17795;DHT22;9021;50.882;4.326;2023-09-19T07:57:34;19.10;99.90
17795;DHT22;9021;50.882;4.326;2023-09-19T08:00:00;18.80;99.90
17795;DHT22;9021;50.882;4.326;2023-09-19T08:02:26;18.80;99.90
17795;DHT22;9021;50.882;4.326;2023-09-19T08:04:53;18.80;99.90
17795;DHT22;9021;50.882;4.326;2023-09-19T08:07:19;18.70;99.90
17795;DHT22;9021;50.882;4.326;2023-09-19T08:09:44;18.50;99.90
17795;DHT22;9021;50.882;4.326;2023-09-19T08:12:11;18.30;99.90
17795;DHT22;9021;50.882;4.326;2023-09-19T08:14:37;18.30;99.90
17795;DHT22;9021;50.882;4.326;2023-09-19T08:17:03;18.40;99.90
17795;DHT22;9021;50.882;4.326;2023-09-19T08:19:30;18.50;99.90
17795;DHT22;9021;50.882;4.326;2023-09-19T08:22:00;18.40;99.90
17795;DHT22;9021;50.882;4.326;2023-09-19T08:24:29;18.30;99.90
17795;DHT22;9021;50.882;4.326;2023-09-19T08:26:55;18.40;99.90
17795;DHT22;9021;50.882;4.326;2023-09-19T08:29:21;18.40;99.90
17795;DHT22;9021;50.882;4.326;2023-09-19T08:31:47;18.50;99.90
17795;DHT22;9021;50.882;4.326;2023-09-19T08:34:15;18.50;99.90
17795;DHT22;9021;50.882;4.326;2023-09-19T08:36:40;18.60;99.90
17795;DHT22;9021;50.882;4.326;2023-09-19T08:39:08;18.50;99.90
17795;DHT22;9021;50.882;4.326;2023-09-19T08:41:34;18.50;99.90
17795;DHT22;9021;50.882;4.326;2023-09-19T08:43:59;18.60;99.90
17795;DHT22;9021;50.882;4.326;2023-09-19T08:46:27;18.60;99.90
17795;DHT22;9021;50.882;4.326;2023-09-19T08:49:04;18.80;99.90
17795;DHT22;9021;50.882;4.326;2023-09-19T08:56:26;18.90;99.90
17795;DHT22;9021;50.882;4.326;2023-09-19T08:58:55;19.00;99.90
17795;DHT22;9021;50.882;4.326;2023-09-19T09:01:23;19.20;99.90
17795;DHT22;9021;50.882;4.326;2023-09-19T09:03:52;19.10;99.90
17795;DHT22;9021;50.882;4.326;2023-09-19T09:06:19;19.20;99.90
17795;DHT22;9021;50.882;4.326;2023-09-19T09:08:45;19.30;99.90
17795;DHT22;9021;50.882;4.326;2023-09-19T09:11:11;19.40;99.90
17795;DHT22;9021;50.882;4.326;2023-09-19T09:13:36;19.50;99.90
17795;DHT22;9021;50.882;4.326;2023-09-19T09:16:02;19.50;99.90
17795;DHT22;9021;50.882;4.326;2023-09-19T09:18:28;19.40;99.90
17795;DHT22;9021;50.882;4.326;2023-09-19T09:20:55;19.30;99.90
17795;DHT22;9021;50.882;4.326;2023-09-19T09:23:21;19.30;99.90
17795;DHT22;9021;50.882;4.326;2023-09-19T09:25:53;19.20;99.90
17795;DHT22;9021;50.882;4.326;2023-09-19T09:28:23;19.30;99.90
17795;DHT22;9021;50.882;4.326;2023-09-19T09:30:49;19.50;99.90
17795;DHT22;9021;50.882;4.326;2023-09-19T09:33:15;19.60;99.90
17795;DHT22;9021;50.882;4.326;2023-09-19T09:38:25;19.60;99.90
17795;DHT22;9021;50.882;4.326;2023-09-19T09:40:56;19.70;99.90
17795;DHT22;9021;50.882;4.326;2023-09-19T09:43:34;19.80;99.90
17795;DHT22;9021;50.882;4.326;2023-09-19T09:48:59;19.90;99.90
17795;DHT22;9021;50.882;4.326;2023-09-19T09:51:59;19.80;99.90
17795;DHT22;9021;50.882;4.326;2023-09-19T09:54:26;19.80;99.90
17795;DHT22;9021;50.882;4.326;2023-09-19T09:56:59;19.80;99.90
17795;DHT22;9021;50.882;4.326;2023-09-19T10:02:14;19.80;99.90
17795;DHT22;9021;50.882;4.326;2023-09-19T10:04:45;19.80;99.90
17795;DHT22;9021;50.882;4.326;2023-09-19T10:07:29;19.80;99.90
17795;DHT22;9021;50.882;4.326;2023-09-19T10:10:01;19.70;99.90
17795;DHT22;9021;50.882;4.326;2023-09-19T10:12:37;19.70;99.90
17795;DHT22;9021;50.882;4.326;2023-09-19T10:15:04;19.70;99.90
17795;DHT22;9021;50.882;4.326;2023-09-19T10:17:33;19.80;99.90
17795;DHT22;9021;50.882;4.326;2023-09-19T10:20:00;20.10;99.90
17795;DHT22;9021;50.882;4.326;2023-09-19T10:22:30;20.00;99.90
17795;DHT22;9021;50.882;4.326;2023-09-19T10:24:57;20.10;99.90
17795;DHT22;9021;50.882;4.326;2023-09-19T10:27:25;19.90;99.90
17795;DHT22;9021;50.882;4.326;2023-09-19T10:29:51;19.90;99.90
17795;DHT22;9021;50.882;4.326;2023-09-19T10:32:21;19.90;99.90
17795;DHT22;9021;50.882;4.326;2023-09-19T10:34:47;20.10;99.90
17795;DHT22;9021;50.882;4.326;2023-09-19T10:37:13;20.30;99.90
17795;DHT22;9021;50.882;4.326;2023-09-19T10:39:41;20.40;99.90
17795;DHT22;9021;50.882;4.326;2023-09-19T10:42:11;20.60;99.90
17795;DHT22;9021;50.882;4.326;2023-09-19T10:44:41;20.80;99.90
17795;DHT22;9021;50.882;4.326;2023-09-19T10:47:09;20.70;99.90
17795;DHT22;9021;50.882;4.326;2023-09-19T10:49:35;20.60;99.90
17795;DHT22;9021;50.882;4.326;2023-09-19T10:52:00;20.60;99.90
17795;DHT22;9021;50.882;4.326;2023-09-19T10:54:28;20.60;99.90
17795;DHT22;9021;50.882;4.326;2023-09-19T10:56:57;20.60;99.90
17795;DHT22;9021;50.882;4.326;2023-09-19T10:59:24;20.70;99.90
17795;DHT22;9021;50.882;4.326;2023-09-19T11:01:59;20.70;99.90
17795;DHT22;9021;50.882;4.326;2023-09-19T11:07:11;21.00;99.90
17795;DHT22;9021;50.882;4.326;2023-09-19T11:12:12;21.10;99.90
17795;DHT22;9021;50.882;4.326;2023-09-19T11:14:39;21.50;99.90
17795;DHT22;9021;50.882;4.326;2023-09-19T11:30:34;24.40;97.40
17795;DHT22;9021;50.882;4.326;2023-09-19T11:33:15;24.50;97.30
17795;DHT22;9021;50.882;4.326;2023-09-19T11:46:29;22.70;99.30
17795;DHT22;9021;50.882;4.326;2023-09-19T11:48:56;22.50;99.50
17795;DHT22;9021;50.882;4.326;2023-09-19T11:51:37;22.60;99.10
17795;DHT22;9021;50.882;4.326;2023-09-19T11:54:10;22.40;99.50
17795;DHT22;9021;50.882;4.326;2023-09-19T11:56:38;22.60;99.10
17795;DHT22;9021;50.882;4.326;2023-09-19T11:59:06;22.80;98.80
17795;DHT22;9021;50.882;4.326;2023-09-19T12:01:33;22.60;99.00
17795;DHT22;9021;50.882;4.326;2023-09-19T12:04:01;22.60;99.00
17795;DHT22;9021;50.882;4.326;2023-09-19T12:06:27;22.50;99.20
17795;DHT22;9021;50.882;4.326;2023-09-19T12:08:54;23.00;98.70
17795;DHT22;9021;50.882;4.326;2023-09-19T12:11:21;22.80;98.60
17795;DHT22;9021;50.882;4.326;2023-09-19T12:13:47;22.40;99.20
17795;DHT22;9021;50.882;4.326;2023-09-19T12:16:14;22.20;99.40
17795;DHT22;9021;50.882;4.326;2023-09-19T12:18:40;22.00;99.80
17795;DHT22;9021;50.882;4.326;2023-09-19T12:21:20;26.30;99.90
17795;DHT22;9021;50.882;4.326;2023-09-19T12:24:03;22.20;99.60
17795;DHT22;9021;50.882;4.326;2023-09-19T12:26:38;22.40;99.70
17795;DHT22;9021;50.882;4.326;2023-09-19T12:29:04;22.80;99.30
17795;DHT22;9021;50.882;4.326;2023-09-19T12:31:30;22.80;99.20
17795;DHT22;9021;50.882;4.326;2023-09-19T12:34:01;22.60;99.00
17795;DHT22;9021;50.882;4.326;2023-09-19T12:36:26;22.30;99.10
17795;DHT22;9021;50.882;4.326;2023-09-19T12:38:56;22.10;99.60
17795;DHT22;9021;50.882;4.326;2023-09-19T12:41:24;21.90;99.90
17795;DHT22;9021;50.882;4.326;2023-09-19T12:43:51;21.90;99.90
17795;DHT22;9021;50.882;4.326;2023-09-19T12:46:20;22.10;99.90
17795;DHT22;9021;50.882;4.326;2023-09-19T12:48:46;22.30;99.80
17795;DHT22;9021;50.882;4.326;2023-09-19T12:51:13;22.60;99.30
17795;DHT22;9021;50.882;4.326;2023-09-19T12:53:43;22.60;99.40
17795;DHT22;9021;50.882;4.326;2023-09-19T12:56:11;22.40;99.70
17795;DHT22;9021;50.882;4.326;2023-09-19T12:58:50;22.10;99.70
17795;DHT22;9021;50.882;4.326;2023-09-19T13:01:16;22.00;99.90
17795;DHT22;9021;50.882;4.326;2023-09-19T13:03:42;22.10;99.90
17795;DHT22;9021;50.882;4.326;2023-09-19T13:06:08;22.20;99.90
17795;DHT22;9021;50.882;4.326;2023-09-19T13:08:35;22.30;99.90
17795;DHT22;9021;50.882;4.326;2023-09-19T13:11:07;22.30;99.90
17795;DHT22;9021;50.882;4.326;2023-09-19T13:13:38;22.00;99.90
17795;DHT22;9021;50.882;4.326;2023-09-19T13:16:04;22.00;99.90
17795;DHT22;9021;50.882;4.326;2023-09-19T13:21:32;21.90;99.90
17795;DHT22;9021;50.882;4.326;2023-09-19T13:24:23;21.90;99.90
17795;DHT22;9021;50.882;4.326;2023-09-19T13:26:51;21.70;99.90
17795;DHT22;9021;50.882;4.326;2023-09-19T13:29:16;21.60;99.90
17795;DHT22;9021;50.882;4.326;2023-09-19T13:31:49;21.60;99.90
17795;DHT22;9021;50.882;4.326;2023-09-19T13:34:15;21.60;99.90
17795;DHT22;9021;50.882;4.326;2023-09-19T13:36:42;21.90;99.90
17795;DHT22;9021;50.882;4.326;2023-09-19T13:39:08;21.90;99.90
17795;DHT22;9021;50.882;4.326;2023-09-19T13:41:35;21.90;99.90
17795;DHT22;9021;50.882;4.326;2023-09-19T13:44:02;21.80;99.90
17795;DHT22;9021;50.882;4.326;2023-09-19T13:46:28;21.70;99.90
17795;DHT22;9021;50.882;4.326;2023-09-19T13:48:53;21.60;99.90
17795;DHT22;9021;50.882;4.326;2023-09-19T13:51:23;21.50;99.90
17795;DHT22;9021;50.882;4.326;2023-09-19T13:53:49;21.50;99.90
17795;DHT22;9021;50.882;4.326;2023-09-19T13:56:15;21.60;99.90
17795;DHT22;9021;50.882;4.326;2023-09-19T13:58:41;21.60;99.90
17795;DHT22;9021;50.882;4.326;2023-09-19T14:01:07;21.60;99.90
17795;DHT22;9021;50.882;4.326;2023-09-19T14:03:37;21.60;99.90
17795;DHT22;9021;50.882;4.326;2023-09-19T14:06:03;21.60;99.90
17795;DHT22;9021;50.882;4.326;2023-09-19T14:08:29;21.50;99.90
17795;DHT22;9021;50.882;4.326;2023-09-19T14:10:54;21.50;99.90
17795;DHT22;9021;50.882;4.326;2023-09-19T14:13:20;21.40;99.90
17795;DHT22;9021;50.882;4.326;2023-09-19T14:15:46;21.40;99.90
17795;DHT22;9021;50.882;4.326;2023-09-19T14:18:11;21.30;99.90
17795;DHT22;9021;50.882;4.326;2023-09-19T14:20:38;21.40;99.90
17795;DHT22;9021;50.882;4.326;2023-09-19T14:23:03;21.50;99.90
17795;DHT22;9021;50.882;4.326;2023-09-19T14:25:30;21.60;99.90
17795;DHT22;9021;50.882;4.326;2023-09-19T14:27:55;21.70;99.90
17795;DHT22;9021;50.882;4.326;2023-09-19T14:30:21;21.50;99.90
17795;DHT22;9021;50.882;4.326;2023-09-19T14:32:47;21.40;99.90
17795;DHT22;9021;50.882;4.326;2023-09-19T14:35:12;21.50;99.90
17795;DHT22;9021;50.882;4.326;2023-09-19T14:37:39;21.60;99.90
17795;DHT22;9021;50.882;4.326;2023-09-19T14:40:05;21.70;99.90
17795;DHT22;9021;50.882;4.326;2023-09-19T14:42:38;21.90;99.90
17795;DHT22;9021;50.882;4.326;2023-09-19T14:45:04;21.90;99.90
17795;DHT22;9021;50.882;4.326;2023-09-19T14:47:30;21.70;99.90
17795;DHT22;9021;50.882;4.326;2023-09-19T14:49:58;19.00;99.90
17795;DHT22;9021;50.882;4.326;2023-09-19T14:52:23;21.70;99.90
17795;DHT22;9021;50.882;4.326;2023-09-19T14:54:51;21.60;99.90
17795;DHT22;9021;50.882;4.326;2023-09-19T14:57:16;21.50;99.90
17795;DHT22;9021;50.882;4.326;2023-09-19T14:59:42;21.30;99.90
17795;DHT22;9021;50.882;4.326;2023-09-19T15:02:07;21.40;99.90
17795;DHT22;9021;50.882;4.326;2023-09-19T15:04:33;21.00;99.90
17795;DHT22;9021;50.882;4.326;2023-09-19T15:06:59;21.00;99.90
17795;DHT22;9021;50.882;4.326;2023-09-19T15:09:25;21.00;99.90
17795;DHT22;9021;50.882;4.326;2023-09-19T15:11:54;21.00;99.90
17795;DHT22;9021;50.882;4.326;2023-09-19T15:14:20;21.00;99.90
17795;DHT22;9021;50.882;4.326;2023-09-19T15:16:46;21.00;99.90
17795;DHT22;9021;50.882;4.326;2023-09-19T15:19:12;21.00;99.90
17795;DHT22;9021;50.882;4.326;2023-09-19T15:21:37;21.00;99.90
17795;DHT22;9021;50.882;4.326;2023-09-19T15:24:03;21.00;99.90
17795;DHT22;9021;50.882;4.326;2023-09-19T15:26:28;21.00;99.90
17795;DHT22;9021;50.882;4.326;2023-09-19T15:28:55;20.90;99.90
17795;DHT22;9021;50.882;4.326;2023-09-19T15:31:21;20.80;99.90
17795;DHT22;9021;50.882;4.326;2023-09-19T15:33:46;20.80;99.90
17795;DHT22;9021;50.882;4.326;2023-09-19T15:36:13;20.60;99.90
17795;DHT22;9021;50.882;4.326;2023-09-19T15:41:27;20.60;99.90
17795;DHT22;9021;50.882;4.326;2023-09-19T15:43:53;20.60;99.90
17795;DHT22;9021;50.882;4.326;2023-09-19T15:46:19;20.60;99.90
17795;DHT22;9021;50.882;4.326;2023-09-19T15:48:44;20.70;99.90
17795;DHT22;9021;50.882;4.326;2023-09-19T15:51:11;20.70;99.90
17795;DHT22;9021;50.882;4.326;2023-09-19T15:53:46;20.60;99.90
17795;DHT22;9021;50.882;4.326;2023-09-19T15:56:12;20.60;99.90
17795;DHT22;9021;50.882;4.326;2023-09-19T15:58:39;20.60;99.90
17795;DHT22;9021;50.882;4.326;2023-09-19T16:01:05;20.50;99.90
17795;DHT22;9021;50.882;4.326;2023-09-19T16:03:35;20.50;99.90
17795;DHT22;9021;50.882;4.326;2023-09-19T16:06:01;20.50;99.90
17795;DHT22;9021;50.882;4.326;2023-09-19T16:08:26;20.50;99.90
17795;DHT22;9021;50.882;4.326;2023-09-19T16:10:52;20.40;99.90
17795;DHT22;9021;50.882;4.326;2023-09-19T16:13:18;20.50;99.90
17795;DHT22;9021;50.882;4.326;2023-09-19T16:15:43;20.40;99.90
17795;DHT22;9021;50.882;4.326;2023-09-19T16:18:12;20.40;99.90
17795;DHT22;9021;50.882;4.326;2023-09-19T16:20:38;20.50;99.90
17795;DHT22;9021;50.882;4.326;2023-09-19T16:23:04;20.50;99.90
17795;DHT22;9021;50.882;4.326;2023-09-19T16:25:30;20.50;99.90
17795;DHT22;9021;50.882;4.326;2023-09-19T16:27:55;20.40;99.90
17795;DHT22;9021;50.882;4.326;2023-09-19T16:30:21;20.30;99.90
17795;DHT22;9021;50.882;4.326;2023-09-19T16:32:46;20.30;99.90
17795;DHT22;9021;50.882;4.326;2023-09-19T16:35:12;20.20;99.90
17795;DHT22;9021;50.882;4.326;2023-09-19T16:37:38;20.30;99.90
17795;DHT22;9021;50.882;4.326;2023-09-19T16:40:04;20.20;99.90
17795;DHT22;9021;50.882;4.326;2023-09-19T16:42:30;20.30;99.90
17795;DHT22;9021;50.882;4.326;2023-09-19T16:44:56;20.30;99.90
17795;DHT22;9021;50.882;4.326;2023-09-19T16:47:23;20.20;99.90
17795;DHT22;9021;50.882;4.326;2023-09-19T16:49:49;20.20;99.90
17795;DHT22;9021;50.882;4.326;2023-09-19T16:52:14;20.20;99.90
17795;DHT22;9021;50.882;4.326;2023-09-19T16:54:40;20.20;99.90
17795;DHT22;9021;50.882;4.326;2023-09-19T16:57:05;20.10;99.90